Time;durP1;ratioP1;P1;durP2;ratioP2;P2;SDS_P1;SDS_P2;PMS_P1;PMS_P2;Temp;Humidity;BMP_temperature;BMP_pressure;BME280_temperature;BME280_humidity;BME280_pressure;Samples;Min_cycle;Max_cycle;Signal;HPM_P1;HPM_P2
2022/01/15 00:04:09;;;;;;;3.58;2.60;;;;;;;6.10;59.78;99058.94;12655195;23;20087;-74
2022/01/15 00:09:30;;;;;;;5.97;2.97;;;;;;;6.06;59.90;99058.50;12657447;23;20037;-74
2022/01/15 00:14:52;;;;;;;5.95;3.15;;;;;;;6.03;59.96;99057.56;12657144;23;20026;-74
2022/01/15 00:20:16;;;;;;;4.40;2.85;;;;;;;6.03;60.06;99054.03;12658070;23;20088;-74
2022/01/15 00:25:37;;;;;;;5.43;3.00;;;;;;;5.97;59.87;99051.34;12637742;23;20391;-74
2022/01/15 00:30:58;;;;;;;5.68;2.80;;;;;;;5.98;60.03;99057.66;12616550;23;20022;-74
2022/01/15 00:36:20;;;;;;;4.40;2.83;;;;;;;5.95;60.12;99047.63;12656764;23;20018;-74
2022/01/15 00:41:41;;;;;;;5.60;3.40;;;;;;;5.93;60.21;99053.72;12617163;23;20095;-74
2022/01/15 00:47:03;;;;;;;5.60;2.55;;;;;;;5.89;60.33;99049.75;12676861;23;20445;-74
2022/01/15 00:52:26;;;;;;;7.75;3.38;;;;;;;5.87;60.42;99047.47;12657492;23;20499;-74
2022/01/15 00:57:47;;;;;;;4.85;2.95;;;;;;;5.89;60.47;99044.94;12656715;23;20425;-74
2022/01/15 01:03:10;;;;;;;4.93;2.75;;;;;;;5.87;60.07;99039.16;12657443;23;20441;-74
2022/01/15 01:08:31;;;;;;;5.93;2.92;;;;;;;5.90;59.98;99048.47;12655803;23;20022;-74
2022/01/15 01:25:06;;;;;;;4.75;2.75;;;;;;;5.83;60.18;99038.00;12639803;23;20021;-74
2022/01/15 01:30:33;;;;;;;4.65;2.83;;;;;;;5.80;60.39;99031.50;12656339;23;20511;-74
2022/01/15 01:36:18;;;;;;;4.82;2.67;;;;;;;5.80;60.34;99031.50;12617211;23;20056;-74
2022/01/15 01:41:47;;;;;;;4.35;2.78;;;;;;;5.79;60.43;99029.25;12640813;23;20623;-74
2022/01/15 01:47:27;;;;;;;5.85;2.75;;;;;;;5.74;60.59;99020.53;12657285;23;20453;-74
2022/01/15 01:52:50;;;;;;;4.32;2.50;;;;;;;5.71;60.52;99018.06;12639022;23;20402;-74
2022/01/15 01:58:11;;;;;;;5.32;2.92;;;;;;;5.72;60.52;99023.06;12611524;23;20072;-74
2022/01/15 02:03:32;;;;;;;4.80;2.60;;;;;;;5.74;60.64;99017.00;12634650;23;20021;-74
2022/01/15 02:08:54;;;;;;;4.35;2.83;;;;;;;5.69;60.39;99009.53;12618129;23;20021;-74
2022/01/15 02:14:29;;;;;;;5.93;2.65;;;;;;;5.69;60.56;99013.06;12615218;23;20073;-74
2022/01/15 02:25:23;;;;;;;3.65;2.10;;;;;;;5.70;60.42;99016.59;12658576;23;20161;-74
2022/01/15 02:30:44;;;;;;;3.83;2.33;;;;;;;5.65;60.37;99020.19;12615373;23;20022;-74
2022/01/15 02:36:15;;;;;;;7.07;2.30;;;;;;;5.61;60.60;99014.97;12655832;23;20021;-74
2022/01/15 02:41:37;;;;;;;3.15;2.05;;;;;;;5.59;60.38;99016.75;12635807;23;20415;-74
2022/01/15 02:52:22;;;;;;;4.40;2.25;;;;;;;5.58;60.31;99001.41;12675714;23;20022;-74
2022/01/15 02:57:44;;;;;;;4.20;2.42;;;;;;;5.57;60.52;98999.94;12639013;23;20441;-74
2022/01/15 03:03:06;;;;;;;4.25;2.50;;;;;;;5.51;60.18;98991.00;12659170;23;20400;-74
2022/01/15 03:08:32;;;;;;;3.88;2.30;;;;;;;5.41;60.29;98990.66;12639250;23;20044;-74
2022/01/15 03:13:53;;;;;;;5.32;2.40;;;;;;;5.34;60.34;98991.28;12639749;23;20022;-74
2022/01/15 03:19:14;;;;;;;3.65;2.35;;;;;;;5.31;60.74;98976.47;12638863;23;20068;-74
2022/01/15 03:24:35;;;;;;;4.43;2.55;;;;;;;5.35;60.55;98990.75;12618028;23;20014;-74
2022/01/15 03:29:57;;;;;;;6.05;3.22;;;;;;;5.36;60.59;98983.91;12618764;23;20018;-74
2022/01/15 03:35:18;;;;;;;5.25;3.00;;;;;;;5.31;60.44;98998.63;12678772;23;20512;-74
2022/01/15 03:40:40;;;;;;;5.78;3.10;;;;;;;5.23;60.76;98991.47;12618485;23;20021;-74
2022/01/15 03:46:02;;;;;;;6.13;3.70;;;;;;;5.03;60.57;98990.03;12658594;23;20441;-74
2022/01/15 03:51:23;;;;;;;6.65;4.32;;;;;;;4.92;61.14;98995.69;12638312;23;20495;-74
2022/01/15 03:56:44;;;;;;;7.28;3.72;;;;;;;4.88;60.95;98996.03;12657799;23;20018;-74
2022/01/15 04:02:05;;;;;;;8.38;4.45;;;;;;;4.84;61.41;98988.03;12677734;23;20042;-74
2022/01/15 04:07:26;;;;;;;6.03;3.95;;;;;;;4.98;61.34;98999.16;12635775;23;20040;-74
2022/01/15 04:12:47;;;;;;;6.88;3.90;;;;;;;5.01;61.07;98987.75;12653885;23;20464;-74
2022/01/15 04:18:09;;;;;;;5.43;3.67;;;;;;;5.02;61.02;98991.28;12695776;23;20014;-74
2022/01/15 04:23:32;;;;;;;5.68;3.50;;;;;;;5.01;60.98;98996.06;12657055;23;20014;-74
2022/01/15 04:28:55;;;;;;;7.78;3.92;;;;;;;5.08;61.26;99000.25;12677289;23;20040;-74
2022/01/15 04:34:25;;;;;;;7.13;4.00;;;;;;;5.05;61.21;98998.53;12634997;23;20021;-74
2022/01/15 04:39:46;;;;;;;6.75;4.90;;;;;;;5.07;61.07;98999.50;12677168;23;20471;-74
2022/01/15 04:45:07;;;;;;;5.85;4.32;;;;;;;5.00;61.05;98994.56;12655224;23;20520;-75
2022/01/15 04:50:28;;;;;;;7.20;4.50;;;;;;;4.84;61.13;98995.59;12675933;23;20076;-74
2022/01/15 04:55:49;;;;;;;6.40;4.47;;;;;;;4.73;61.04;99001.25;12657029;23;20089;-74
2022/01/15 05:01:10;;;;;;;6.50;5.07;;;;;;;4.65;61.25;98997.63;12671423;23;20014;-74
2022/01/15 05:06:31;;;;;;;6.50;4.63;;;;;;;4.59;61.10;98992.91;12611517;23;20105;-74
2022/01/15 05:12:02;;;;;;;6.70;4.65;;;;;;;4.69;61.11;98995.28;12672846;23;20338;-74
2022/01/15 05:17:23;;;;;;;6.38;4.25;;;;;;;4.78;61.20;98998.44;12652727;23;20022;-74
2022/01/15 05:22:45;;;;;;;8.13;5.22;;;;;;;4.81;61.17;99008.44;12632838;23;20329;-74
2022/01/15 05:28:07;;;;;;;9.15;4.97;;;;;;;4.92;61.22;99006.78;12633184;23;20065;-74
2022/01/15 05:33:29;;;;;;;5.65;4.70;;;;;;;4.94;61.07;98993.94;12633702;23;20497;-74
2022/01/15 05:38:51;;;;;;;7.65;4.47;;;;;;;4.95;60.69;98994.66;12612628;23;20460;-74
2022/01/15 05:44:12;;;;;;;6.38;4.95;;;;;;;4.92;61.04;98984.63;12653027;23;20022;-74
2022/01/15 05:49:33;;;;;;;8.63;5.32;;;;;;;4.89;61.17;98986.44;12673563;23;20017;-73
2022/01/15 05:54:54;;;;;;;7.93;5.03;;;;;;;4.97;60.96;98989.34;12672723;23;20017;-73
2022/01/15 06:00:16;;;;;;;9.05;5.70;;;;;;;5.00;60.93;98994.56;12652567;23;20360;-74
2022/01/15 06:05:37;;;;;;;6.97;5.15;;;;;;;5.02;61.00;98977.44;12632656;23;20030;-74
2022/01/15 06:10:58;;;;;;;8.80;5.65;;;;;;;4.96;60.64;98974.03;12652097;23;20097;-74
2022/01/15 06:16:20;;;;;;;10.63;6.03;;;;;;;4.79;60.79;98972.25;12633725;23;20018;-74
2022/01/15 06:21:41;;;;;;;10.02;6.40;;;;;;;4.64;61.04;98977.53;12614708;23;20053;-74
2022/01/15 06:27:02;;;;;;;10.52;6.25;;;;;;;4.40;61.41;98972.06;12615987;23;20096;-74
2022/01/15 06:32:27;;;;;;;13.13;8.25;;;;;;;4.23;61.79;98980.56;12658931;23;20072;-74
2022/01/15 06:37:49;;;;;;;12.13;6.65;;;;;;;4.17;62.02;98991.72;12679199;23;20085;-74
2022/01/15 06:43:10;;;;;;;10.18;7.05;;;;;;;4.23;61.64;99000.66;12639597;23;20049;-74
2022/01/15 06:48:31;;;;;;;10.65;7.15;;;;;;;4.33;62.31;98998.28;12658468;23;20022;-74
2022/01/15 06:53:52;;;;;;;11.63;6.40;;;;;;;4.39;61.72;98998.97;12658848;23;20014;-74
2022/01/15 06:59:13;;;;;;;10.98;5.80;;;;;;;4.47;61.83;99001.88;12659130;23;20025;-74
2022/01/15 07:13:14;;;;;;;10.20;6.40;;;;;;;4.56;61.52;99016.09;12652515;23;20085;-74
2022/01/15 07:18:35;;;;;;;8.77;5.85;;;;;;;4.60;61.87;99015.78;12598261;23;20015;-73
2022/01/15 07:23:55;;;;;;;11.35;6.30;;;;;;;4.68;61.43;99015.94;12598976;23;20315;-73
2022/01/15 07:29:16;;;;;;;11.73;5.95;;;;;;;4.76;61.68;99009.28;12598854;23;20057;-72
2022/01/15 07:34:37;;;;;;;11.95;6.82;;;;;;;4.89;61.69;99003.78;12577924;23;20014;-72
2022/01/15 07:39:59;;;;;;;11.18;6.82;;;;;;;5.07;61.57;99013.34;12597705;23;20022;-72
2022/01/15 07:45:20;;;;;;;9.13;6.40;;;;;;;5.26;61.34;99007.00;12618009;23;20022;-73
2022/01/15 07:50:41;;;;;;;13.65;6.88;;;;;;;5.30;60.93;99019.25;12598456;23;20024;-72
2022/01/15 07:56:02;;;;;;;11.30;7.03;;;;;;;5.35;60.80;99031.53;12578120;23;20015;-72
2022/01/15 08:01:23;;;;;;;12.23;6.88;;;;;;;5.38;60.75;99031.22;12617527;23;20089;-73
2022/01/15 08:06:45;;;;;;;13.98;6.75;;;;;;;5.42;60.86;99034.44;12603261;23;20015;-72
2022/01/15 08:12:07;;;;;;;12.43;6.75;;;;;;;5.50;60.63;99044.88;12567092;23;20024;-72
2022/01/15 08:17:30;;;;;;;12.18;6.43;;;;;;;5.47;60.34;99049.44;12657506;23;20464;-72
2022/01/15 08:22:51;;;;;;;15.60;7.13;;;;;;;5.60;60.12;99054.28;12637730;23;20089;-72
2022/01/15 08:28:12;;;;;;;12.20;6.88;;;;;;;5.60;60.04;99055.03;12638247;23;20028;-72
2022/01/15 08:33:34;;;;;;;11.63;6.10;;;;;;;5.68;59.91;99066.22;12657741;23;20013;-73
2022/01/15 08:38:55;;;;;;;9.43;5.85;;;;;;;5.95;59.92;99062.22;12637819;23;20022;-71
2022/01/15 08:44:20;;;;;;;14.20;5.95;;;;;;;6.07;59.26;99064.78;12657544;23;20045;-72
2022/01/15 08:49:41;;;;;;;;;;;;;;;6.15;58.90;99062.88;12678440;23;20507;-73
2022/01/15 08:55:06;;;;;;;10.63;6.10;;;;;;;6.36;58.95;99063.72;12636579;23;19925;-72
2022/01/15 09:00:28;;;;;;;10.00;6.18;;;;;;;7.01;58.84;99069.69;12637430;23;20048;-72
2022/01/15 09:05:51;;;;;;;11.02;5.63;;;;;;;7.51;57.37;99085.16;12669387;23;20018;-74
2022/01/15 09:11:12;;;;;;;11.73;6.78;;;;;;;7.68;57.47;99071.63;12657795;23;20014;-74
2022/01/15 09:16:32;;;;;;;11.80;6.88;;;;;;;7.50;57.06;99080.91;12676671;23;20014;-74
2022/01/15 09:21:54;;;;;;;10.32;6.00;;;;;;;7.91;56.83;99082.94;12676931;23;20018;-74
2022/01/15 09:32:55;;;;;;;10.52;6.07;;;;;;;8.65;56.12;99065.00;12640064;23;20022;-74
2022/01/15 09:38:15;;;;;;;9.68;6.03;;;;;;;10.16;54.87;99060.91;12696862;23;20025;-74
2022/01/15 09:43:38;;;;;;;10.50;5.28;;;;;;;18.68;48.86;99062.94;12656989;23;20014;-75
2022/01/15 09:49:00;;;;;;;7.35;4.88;;;;;;;24.60;38.69;99066.06;12676154;23;20018;-73
2022/01/15 09:54:23;;;;;;;7.28;4.43;;;;;;;28.06;31.61;99075.13;12676967;23;20069;-73
2022/01/15 09:59:43;;;;;;;6.95;3.80;;;;;;;24.11;34.11;99078.63;12655736;23;20310;-73
2022/01/15 10:05:04;;;;;;;7.63;3.80;;;;;;;19.56;35.28;99079.78;12669952;23;20337;-73
2022/01/15 10:10:27;;;;;;;4.50;2.78;;;;;;;16.50;36.67;99077.88;12675696;23;20033;-78
2022/01/15 10:15:57;;;;;;;7.13;3.17;;;;;;;13.94;37.91;99066.19;12598437;23;20315;-76
2022/01/15 10:21:23;;;;;;;6.20;2.33;;;;;;;14.69;38.52;99064.69;12597696;23;20018;-76
2022/01/15 10:26:44;;;;;;;7.13;2.85;;;;;;;16.54;37.83;99066.09;12597770;23;20023;-79
2022/01/15 10:32:04;;;;;;;6.00;2.60;;;;;;;16.41;35.37;99052.56;12594775;23;20021;-78
2022/01/15 10:37:28;;;;;;;7.13;4.00;;;;;;;16.04;34.64;99067.06;12595680;23;20485;-77
2022/01/15 10:42:51;;;;;;;6.18;3.38;;;;;;;14.87;35.16;99061.09;12586348;23;20014;-76
2022/01/15 10:48:19;;;;;;;4.97;2.90;;;;;;;13.67;35.37;99062.72;12617493;23;20489;-77
2022/01/15 10:53:44;;;;;;;5.70;2.80;;;;;;;12.42;36.10;99068.28;12616269;23;20446;-76
2022/01/15 10:59:10;;;;;;;5.57;3.10;;;;;;;11.63;36.74;99054.81;12598341;23;20022;-78
2022/01/15 11:04:34;;;;;;;6.88;3.00;;;;;;;11.41;37.33;99053.69;12598996;23;20052;-78
2022/01/15 11:09:58;;;;;;;7.82;3.70;;;;;;;12.16;36.09;99039.66;12637277;23;20015;-79
2022/01/15 11:15:19;;;;;;;5.38;3.10;;;;;;;11.99;36.62;99034.03;12660043;23;20373;-79
2022/01/15 11:20:44;;;;;;;6.93;2.70;;;;;;;11.73;36.28;99030.50;12641931;23;20065;-77
2022/01/15 11:26:09;;;;;;;6.57;2.95;;;;;;;11.21;36.84;99014.88;12662572;23;20022;-77
2022/01/15 11:31:32;;;;;;;4.82;3.10;;;;;;;10.47;37.20;99019.72;12641876;23;20073;-77
2022/01/15 11:36:52;;;;;;;6.70;3.20;;;;;;;9.94;38.25;99012.25;12681458;23;20017;-77
2022/01/15 11:42:27;;;;;;;5.38;2.97;;;;;;;10.31;38.58;98995.97;12662014;23;20376;-77
2022/01/15 11:48:18;;;;;;;6.35;2.67;;;;;;;11.12;37.50;99003.00;12683072;23;20018;-77
2022/01/15 11:53:59;;;;;;;7.18;3.08;;;;;;;10.98;37.10;98998.25;12644809;23;20441;-77
2022/01/15 11:59:23;;;;;;;6.55;2.97;;;;;;;10.87;37.31;98982.66;12642139;23;20022;-76
2022/01/15 12:04:43;;;;;;;6.50;3.60;;;;;;;11.33;37.57;98987.94;12718015;23;20018;-77
2022/01/15 12:10:04;;;;;;;6.22;2.88;;;;;;;11.59;36.85;98969.84;12679708;23;20014;-77
2022/01/15 12:15:27;;;;;;;7.07;3.17;;;;;;;11.93;36.44;98974.75;12612775;23;20342;-77
2022/01/15 12:20:50;;;;;;;6.70;3.17;;;;;;;11.56;36.46;98960.53;12620364;23;20482;-77
2022/01/15 12:26:11;;;;;;;5.88;3.20;;;;;;;11.87;36.86;98960.25;12620309;23;20022;-77
2022/01/15 12:31:32;;;;;;;6.90;3.13;;;;;;;12.21;36.35;98957.47;12600604;23;20020;-77
2022/01/15 12:36:53;;;;;;;9.88;2.80;;;;;;;12.54;36.32;98951.63;12579000;23;20027;-76
2022/01/15 12:42:16;;;;;;;8.30;3.60;;;;;;;12.93;35.43;98941.38;12620450;23;20022;-77
2022/01/15 12:47:45;;;;;;;6.53;2.30;;;;;;;13.10;35.27;98930.09;12581015;23;20073;-77
2022/01/15 12:53:06;;;;;;;7.70;3.42;;;;;;;12.94;35.29;98926.06;12620247;23;20022;-77
2022/01/15 12:58:27;;;;;;;5.63;2.97;;;;;;;12.72;35.06;98932.72;12621134;23;20026;-77
2022/01/15 13:03:48;;;;;;;5.88;2.95;;;;;;;12.38;35.71;98923.09;12560667;23;20018;-77
2022/01/15 13:09:09;;;;;;;7.50;2.88;;;;;;;11.70;35.58;98919.75;12598526;23;20018;-77
2022/01/15 13:14:41;;;;;;;8.25;3.17;;;;;;;11.32;35.92;98908.22;12644660;23;20018;-78
2022/01/15 13:20:03;;;;;;;5.47;2.70;;;;;;;11.05;36.21;98899.69;12639310;23;20077;-78
2022/01/15 13:25:24;;;;;;;9.57;3.30;;;;;;;10.76;36.72;98890.94;12682268;23;20044;-77
2022/01/15 13:30:46;;;;;;;6.07;3.15;;;;;;;10.43;37.01;98885.41;12641127;23;20025;-77
2022/01/15 13:36:17;;;;;;;8.20;3.53;;;;;;;10.18;37.19;98873.41;12677637;23;20065;-77
2022/01/15 13:41:39;;;;;;;6.93;3.47;;;;;;;9.86;37.83;98869.28;12657488;23;20020;-77
2022/01/15 13:47:07;;;;;;;8.18;3.97;;;;;;;9.72;37.96;98868.00;12658379;23;20017;-77
2022/01/15 13:58:13;;;;;;;5.85;2.95;;;;;;;9.30;38.14;98862.16;12640325;23;20021;-77
2022/01/15 14:03:34;;;;;;;8.65;3.22;;;;;;;9.14;38.50;98853.09;12637381;23;20018;-76
2022/01/15 14:08:59;;;;;;;7.72;3.50;;;;;;;8.88;38.70;98854.97;12657884;23;20311;-77
2022/01/15 14:14:20;;;;;;;7.00;3.75;;;;;;;8.69;39.14;98856.63;12664745;23;20025;-76
2022/01/15 14:25:23;;;;;;;8.10;3.63;;;;;;;8.28;40.06;98855.59;12677539;23;20021;-78
2022/01/15 14:30:44;;;;;;;11.05;4.20;;;;;;;8.09;40.23;98844.78;12656554;23;20429;-77
2022/01/15 14:36:05;;;;;;;8.02;3.97;;;;;;;7.89;40.98;98854.75;12656536;23;20014;-78
2022/01/15 14:41:26;;;;;;;8.73;4.47;;;;;;;7.68;40.74;98840.94;12672997;23;20037;-80
2022/01/15 14:46:46;;;;;;;9.98;3.92;;;;;;;7.50;41.00;98841.97;12680423;23;20465;-77
2022/01/15 14:52:07;;;;;;;9.43;4.22;;;;;;;7.32;41.26;98837.41;12639772;23;20044;-77
2022/01/15 14:57:28;;;;;;;9.07;3.70;;;;;;;7.12;41.85;98827.84;12661241;23;20366;-78
2022/01/15 15:02:53;;;;;;;8.15;4.15;;;;;;;6.95;42.31;98827.53;12661219;23;20452;-77
2022/01/15 15:08:14;;;;;;;8.73;4.10;;;;;;;6.68;42.48;98827.00;12640898;23;20510;-77
2022/01/15 15:13:36;;;;;;;10.45;4.53;;;;;;;6.35;42.96;98815.41;12634356;23;20022;-77
2022/01/15 15:18:57;;;;;;;9.90;5.07;;;;;;;6.06;43.31;98822.16;12637266;23;20018;-77
2022/01/15 15:24:17;;;;;;;14.65;5.40;;;;;;;5.76;43.89;98820.50;12639087;23;20045;-77
2022/01/15 15:29:38;;;;;;;13.02;6.00;;;;;;;5.49;44.51;98819.03;12639111;23;20022;-77
2022/01/15 15:34:59;;;;;;;15.20;5.60;;;;;;;5.29;44.65;98826.72;12658388;23;20014;-77
2022/01/15 15:40:20;;;;;;;11.32;5.75;;;;;;;5.13;45.03;98816.75;12658038;23;20022;-77
2022/01/15 15:45:41;;;;;;;14.23;5.68;;;;;;;5.00;45.28;98802.88;12638075;23;20322;-77
2022/01/15 15:51:01;;;;;;;14.20;7.70;;;;;;;4.87;45.48;98809.16;12638700;23;20389;-77
2022/01/15 15:56:22;;;;;;;18.10;9.52;;;;;;;4.71;46.41;98813.69;12639046;23;20021;-77
2022/01/15 16:01:44;;;;;;;14.27;6.35;;;;;;;4.60;46.27;98817.41;12657575;23;20075;-77
2022/01/15 16:07:05;;;;;;;16.17;7.70;;;;;;;4.50;47.47;98816.31;12644863;23;20429;-77
2022/01/15 16:12:27;;;;;;;14.10;6.88;;;;;;;4.32;46.52;98808.81;12638761;23;20026;-77
2022/01/15 16:17:49;;;;;;;18.65;8.18;;;;;;;4.09;47.73;98808.44;12617916;23;20025;-77
2022/01/15 16:23:10;;;;;;;13.65;7.65;;;;;;;3.97;48.11;98818.16;12658437;23;20021;-77
2022/01/15 16:28:30;;;;;;;18.80;7.35;;;;;;;3.95;48.21;98815.16;12699031;23;20024;-77
2022/01/15 16:33:52;;;;;;;19.65;7.18;;;;;;;3.96;48.84;98809.13;12637912;23;20077;-76
2022/01/15 16:39:12;;;;;;;18.35;8.75;;;;;;;3.91;49.27;98809.94;12698844;23;20018;-77
2022/01/15 16:44:34;;;;;;;17.13;7.38;;;;;;;3.82;49.35;98806.81;12637523;23;20021;-76
2022/01/15 16:49:55;;;;;;;19.65;8.38;;;;;;;3.74;49.08;98804.63;12677215;23;20017;-77
2022/01/15 16:55:20;;;;;;;15.88;7.85;;;;;;;3.69;49.70;98805.47;12677965;23;20441;-76
2022/01/15 17:00:41;;;;;;;16.20;7.05;;;;;;;3.62;49.70;98806.06;12637964;23;20310;-76
2022/01/15 17:06:02;;;;;;;26.25;11.80;;;;;;;3.58;50.59;98800.09;12637333;23;20028;-77
2022/01/15 17:11:23;;;;;;;35.00;15.60;;;;;;;3.52;50.89;98804.94;12655609;23;20381;-78
2022/01/15 17:16:43;;;;;;;21.88;9.35;;;;;;;3.48;50.78;98801.75;12596713;23;20018;-78
2022/01/15 17:22:05;;;;;;;24.00;10.73;;;;;;;3.43;51.21;98791.50;12556538;23;20509;-77
2022/01/15 17:27:26;;;;;;;25.15;9.25;;;;;;;3.33;51.60;98801.41;12596976;23;20029;-77
2022/01/15 17:32:46;;;;;;;18.05;7.57;;;;;;;3.23;52.30;98790.00;12596723;23;20018;-78
2022/01/15 17:38:07;;;;;;;23.75;8.65;;;;;;;3.16;52.22;98787.81;12616109;23;20042;-77
2022/01/15 17:43:28;;;;;;;20.55;7.38;;;;;;;3.05;52.50;98783.16;12595761;23;20437;-77
2022/01/15 17:48:48;;;;;;;22.20;8.88;;;;;;;3.02;52.91;98781.47;12575735;23;20022;-77
2022/01/15 17:54:09;;;;;;;20.20;9.20;;;;;;;2.98;53.08;98783.75;12556679;23;20018;-75
2022/01/15 17:59:30;;;;;;;19.95;8.02;;;;;;;3.01;53.53;98779.97;12576733;23;20025;-77
2022/01/15 18:04:51;;;;;;;24.05;11.93;;;;;;;2.96;53.12;98764.22;12612514;23;20334;-77
2022/01/15 18:10:17;;;;;;;23.38;10.07;;;;;;;2.90;53.49;98763.53;12575729;23;20025;-77
2022/01/15 18:15:38;;;;;;;24.42;10.75;;;;;;;2.91;53.45;98778.06;12630833;23;20018;-77
2022/01/15 18:20:59;;;;;;;19.92;10.27;;;;;;;2.83;53.54;98772.38;12698247;23;20018;-77
2022/01/15 18:26:19;;;;;;;18.45;8.30;;;;;;;2.75;53.90;98765.94;12700472;23;20068;-76
2022/01/15 18:31:40;;;;;;;21.25;9.15;;;;;;;2.71;54.73;98776.53;12659471;23;20025;-75
2022/01/15 18:37:01;;;;;;;19.95;8.70;;;;;;;2.68;54.84;98777.53;12660434;23;20056;-75
2022/01/15 18:42:22;;;;;;;21.88;9.27;;;;;;;2.70;54.50;98775.00;12679839;23;20014;-75
2022/01/15 18:47:43;;;;;;;19.88;8.70;;;;;;;2.67;54.78;98778.81;12660303;23;20021;-76
2022/01/15 18:53:04;;;;;;;23.13;8.98;;;;;;;2.66;54.62;98774.56;12639977;23;20025;-76
2022/01/15 18:58:24;;;;;;;19.17;7.57;;;;;;;2.65;54.73;98778.59;12659172;23;20330;-77
2022/01/15 19:03:45;;;;;;;20.98;8.27;;;;;;;2.57;55.36;98773.63;12659937;23;20014;-79
2022/01/15 19:09:07;;;;;;;25.40;8.57;;;;;;;2.53;55.50;98778.69;12619268;23;20081;-77
2022/01/15 19:14:28;;;;;;;26.67;9.55;;;;;;;2.46;55.73;98806.06;12639827;23;20021;-76
2022/01/15 19:19:49;;;;;;;24.42;9.52;;;;;;;2.43;56.06;98835.41;12659582;23;20472;-77
2022/01/15 19:25:11;;;;;;;20.73;8.43;;;;;;;2.45;56.25;98873.47;12658694;23;20013;-76
2022/01/15 19:30:33;;;;;;;26.33;9.13;;;;;;;2.42;56.39;98789.81;12658661;23;20093;-76
2022/01/15 19:35:54;;;;;;;26.70;8.85;;;;;;;2.37;56.43;98749.28;12649447;23;20449;-78
2022/01/15 19:41:15;;;;;;;20.50;8.43;;;;;;;2.28;56.71;98752.34;12659668;23;20096;-78
2022/01/15 19:46:36;;;;;;;22.85;8.82;;;;;;;2.30;56.93;98730.53;12658201;23;20021;-77
2022/01/15 19:51:57;;;;;;;24.10;8.18;;;;;;;2.26;56.90;98675.72;12630461;23;20018;-77
2022/01/15 19:57:18;;;;;;;20.95;9.63;;;;;;;2.21;56.71;98667.50;12658753;23;20045;-77
2022/01/15 20:02:39;;;;;;;21.60;8.38;;;;;;;2.19;57.52;98651.50;12617577;23;20018;-77
2022/01/15 20:08:01;;;;;;;24.67;8.45;;;;;;;2.20;57.32;98707.34;12641259;23;20014;-77
2022/01/15 20:13:22;;;;;;;26.13;9.60;;;;;;;2.18;57.46;98682.31;12638048;23;20018;-77
2022/01/15 20:18:44;;;;;;;21.08;8.75;;;;;;;2.16;57.89;98680.09;12637361;23;20072;-78
2022/01/15 20:24:05;;;;;;;26.23;10.20;;;;;;;2.15;57.66;98692.38;12638570;23;20024;-77
2022/01/15 20:29:26;;;;;;;22.75;9.45;;;;;;;2.14;57.54;98703.91;12637426;23;20389;-78
2022/01/15 20:34:47;;;;;;;25.65;9.55;;;;;;;2.11;57.73;98716.69;12657810;23;20018;-77
2022/01/15 20:40:09;;;;;;;24.48;8.80;;;;;;;2.06;58.40;98672.69;12657760;23;20044;-78
2022/01/15 20:45:30;;;;;;;21.80;9.13;;;;;;;2.04;58.55;98658.69;12694768;23;20061;-81
2022/01/15 20:50:51;;;;;;;25.50;9.40;;;;;;;1.98;58.80;98653.22;12712811;23;20094;-80
2022/01/15 20:56:12;;;;;;;24.75;11.48;;;;;;;1.94;58.58;98655.50;12682658;23;20017;-81
2022/01/15 21:01:33;;;;;;;25.33;11.45;;;;;;;1.94;58.77;98691.31;12722088;23;20021;-83
2022/01/15 21:06:54;;;;;;;24.55;13.07;;;;;;;1.89;59.08;98683.81;12689342;23;20030;-80
2022/01/15 21:12:15;;;;;;;22.45;10.18;;;;;;;1.87;58.96;98702.88;12640266;23;20018;-77
2022/01/15 21:17:36;;;;;;;24.17;10.20;;;;;;;1.85;59.13;98708.16;12617136;23;20033;-77
2022/01/15 21:22:57;;;;;;;27.10;10.75;;;;;;;1.76;58.90;98662.41;12621008;23;20097;-79
2022/01/15 21:28:18;;;;;;;29.63;11.48;;;;;;;1.76;59.48;98634.13;12637915;23;20017;-79
2022/01/15 21:33:39;;;;;;;25.55;12.43;;;;;;;1.69;59.46;98638.94;12657401;23;20096;-77
2022/01/15 21:39:05;;;;;;;24.38;12.40;;;;;;;1.69;59.69;98644.44;12636539;23;20022;-78
2022/01/15 21:44:30;;;;;;;23.98;12.52;;;;;;;1.69;59.96;98638.19;12656302;23;20029;-77
2022/01/15 21:50:13;;;;;;;29.27;14.23;;;;;;;1.63;59.76;98634.72;12638602;23;20018;-77
2022/01/15 21:55:38;;;;;;;22.75;13.40;;;;;;;1.62;60.18;98645.00;12674861;23;20022;-77
2022/01/15 22:01:20;;;;;;;30.25;15.23;;;;;;;1.52;60.10;98649.31;12655040;23;20026;-80
2022/01/15 22:06:41;;;;;;;27.00;15.60;;;;;;;1.48;60.21;98645.38;12647278;23;20049;-77
2022/01/15 22:12:05;;;;;;;28.33;16.77;;;;;;;1.41;60.89;98647.41;12664503;23;20073;-77
2022/01/15 22:17:29;;;;;;;26.08;15.15;;;;;;;1.38;60.29;98640.19;12678104;23;20024;-77
2022/01/15 22:22:52;;;;;;;24.52;15.52;;;;;;;1.37;60.56;98638.69;12616471;23;20018;-77
2022/01/15 22:28:13;;;;;;;29.25;16.83;;;;;;;1.30;60.52;98630.97;12656607;23;20029;-77
2022/01/15 22:33:33;;;;;;;26.38;15.93;;;;;;;1.30;61.37;98630.97;12653323;23;20014;-77
2022/01/15 22:38:55;;;;;;;30.35;16.45;;;;;;;1.31;61.05;98621.47;12633172;23;20026;-78
2022/01/15 22:44:16;;;;;;;26.23;16.63;;;;;;;1.23;61.32;98631.50;12654030;23;20068;-78
2022/01/15 22:49:37;;;;;;;28.95;17.95;;;;;;;1.21;61.40;98619.53;12644819;23;20025;-78
2022/01/15 22:54:58;;;;;;;28.77;16.77;;;;;;;1.17;61.53;98627.31;12655755;23;20093;-78
2022/01/15 23:00:55;;;;;;;29.33;17.17;;;;;;;1.11;61.74;98624.59;12656093;23;20018;-77
2022/01/15 23:06:16;;;;;;;27.73;17.13;;;;;;;1.06;61.63;98630.88;12477145;23;20067;-79
2022/01/15 23:11:40;;;;;;;30.02;17.17;;;;;;;1.02;62.00;98617.41;12499778;23;20025;-79
2022/01/15 23:17:03;;;;;;;29.50;16.85;;;;;;;0.96;62.33;98618.66;12481602;23;20371;-79
2022/01/15 23:22:24;;;;;;;26.92;16.42;;;;;;;0.90;62.25;98599.47;12500048;23;20019;-79
2022/01/15 23:27:45;;;;;;;32.03;18.73;;;;;;;0.90;62.61;98593.97;12499877;23;20023;-80
2022/01/15 23:33:05;;;;;;;27.50;17.20;;;;;;;0.89;62.58;98576.00;12500404;23;20015;-79
2022/01/15 23:38:27;;;;;;;29.73;18.02;;;;;;;0.84;62.49;98571.25;12479598;23;20023;-79
2022/01/15 23:43:49;;;;;;;29.10;17.70;;;;;;;0.77;62.72;98572.56;12499569;23;20026;-79
2022/01/15 23:49:10;;;;;;;30.33;18.50;;;;;;;0.73;62.66;98588.56;12499778;23;20019;-79
2022/01/15 23:54:31;;;;;;;28.60;17.92;;;;;;;0.66;62.75;98567.13;12499268;23;20346;-79
2022/01/15 23:59:55;;;;;;;35.22;18.40;;;;;;;0.64;62.71;98569.63;12499503;23;20330;-79
